Danmarkshavn

KL  EN  DA
ASIAQ
Weather Now GREENLAND SURVEY
Updated [WGT/WGST] Temperature [°C] Wind [m/s] Air pressure [hPa] Relative humidity [%] Precipitation [mm]
Present Wind chill Speed Max
20.04 16:00-11,0-16,73,0 ⇓9,0101142n/a
20.04 15:00-10,5-16,83,6 ⇓5,4101141n/a
20.04 14:00-10,3-17,64,7 ⇓7,8101142n/a
20.04 13:00-11,0-19,76,4 ⇓8,9101143n/a
20.04 12:00-10,5-14,11,7 ⇘3,5101242n/a
20.04 11:00-10,4-13,41,4 ⇗3,8101241n/a
20.04 10:00-12,6-22,27,1 ⇓7,6101248n/a
20.04 09:00-11,6-15,21,6 ⇘8,5101343n/a
20.04 08:00-13,8-18,31,9 ⇒3,1101355n/a
20.04 07:00-12,70,00,6 ⇒4,0101348n/a
20.04 06:00-14,90,00,3 ⇘5,9101359n/a
20.04 05:00-16,20,00,4 ⇑2,8101363n/a
20.04 04:00-14,50,01,0 ⇖3,3101361n/a
20.04 03:00-18,40,01,1 ⇖5,9101271n/a
20.04 02:00-17,60,00,0 ⇓3,7101380n/a
20.04 01:00-14,90,01,0 ⇓2,8101368n/a
20.04 00:00-16,80,00,0 ⇓2,9101382n/a
19.04 23:00-15,30,01,0 ⇐1,2101378n/a
19.04 22:00-14,3-19,32,1 ⇘1,9101376n/a
19.04 21:00-14,10,00,8 ⇘1,6101375n/a
19.04 20:00-12,9-17,11,8 ⇒2,1101274n/a
19.04 19:00-12,20,01,0 ⇘2,0101272n/a
19.04 18:00-11,5-19,04,7 ⇓4,9101268n/a
19.04 17:00-10,7-15,52,4 ⇗3,7101169n/a
19.04 16:00-9,6-12,71,5 ⇓2,8101061n/a
Position: (76.76944444444,-18.66805555)

[Back]